OISL

Details ICAO OISL (LRR)
Name LAR
Region Iran
Timezone Asia/Tehran (UTC+3.5)
Plans Departing 1
Arriving 4
Stats Elevation 2,641 ft / 805 m (AMSL)
Location 27.674725° 54.383278°
Runways 1
Magnetic Variation 2.604° E
Sunrise 2017-12-16 03:07:28 UTC / 2017-12-16 06:37:28 Local
Sunset 2017-12-16 13:31:21 UTC / 2017-12-16 17:01:21 Local
Advertisement - Login to hide

Runways

ID Width Length Bearing (true) Bearing (mag) Surface Threshold Offset Overrun Length
09 148 ft / 45 m 10,317 ft / 3,145 m 89.10° 86.50° Asphalt 0 ft / 0 m 190 ft / 58 m
27 148 ft / 45 m 10,317 ft / 3,145 m 269.12° 266.52° Asphalt 0 ft / 0 m 190 ft / 58 m

Map

Weather


0- 5 10 15 20 25 30 35+ Temperature / ° C

Clouds and Precipitation
Forecast for 2017-12-16 06:00 UTC. Updated 40 minutes ago

Ground ~20,000 ft ~40,000 ft Winds

METAR

OISL 160350Z 00000KT 9999 SCT035CB SCT040 OVC090 11/08 Q1021

TAF

TAF OISL 151800Z 1518/1624 16004MPS 6000 FEW030CB SCT035 OVC100 TEMPO 1600/1603 3000 RA TEMPO 1603/1609 3000 TSRA SCT030CB SCT035 OVC100 TEMPO 1609/1615 3000 RA BECMG 1618/1620 FEW030CB SCT035 BKN100

Frequencies

Tower 121.90 MHz INFO
Tower 127.35 MHz INFO
Warning: Do not use this data for real-world aviation or navigation. No guarantee of current accuracy is given.